sensor_id;sensor_type;location;lat;lon;timestamp;temperature;humidity
47576;DHT22;33304;52.456;13.328;2023-10-09T00:01:43;11.50;15.00
47576;DHT22;33304;52.456;13.328;2023-10-09T00:04:13;11.70;16.60
47576;DHT22;33304;52.456;13.328;2023-10-09T00:06:41;11.60;16.90
47576;DHT22;33304;52.456;13.328;2023-10-09T00:09:09;11.50;16.90
47576;DHT22;33304;52.456;13.328;2023-10-09T00:11:56;11.40;18.00
47576;DHT22;33304;52.456;13.328;2023-10-09T00:14:25;11.30;18.20
47576;DHT22;33304;52.456;13.328;2023-10-09T00:16:52;11.30;18.90
47576;DHT22;33304;52.456;13.328;2023-10-09T00:19:32;11.30;19.50
47576;DHT22;33304;52.456;13.328;2023-10-09T00:21:59;11.20;20.20
47576;DHT22;33304;52.456;13.328;2023-10-09T00:24:34;11.20;20.80
47576;DHT22;33304;52.456;13.328;2023-10-09T00:27:01;11.10;21.70
47576;DHT22;33304;52.456;13.328;2023-10-09T00:29:39;11.20;22.40
47576;DHT22;33304;52.456;13.328;2023-10-09T00:32:11;11.10;21.80
47576;DHT22;33304;52.456;13.328;2023-10-09T00:34:50;11.00;22.70
47576;DHT22;33304;52.456;13.328;2023-10-09T00:37:17;11.00;22.70
47576;DHT22;33304;52.456;13.328;2023-10-09T00:39:49;10.80;22.50
47576;DHT22;33304;52.456;13.328;2023-10-09T00:42:22;10.70;25.00
47576;DHT22;33304;52.456;13.328;2023-10-09T00:44:55;10.70;26.40
47576;DHT22;33304;52.456;13.328;2023-10-09T00:47:29;10.70;27.40
47576;DHT22;33304;52.456;13.328;2023-10-09T00:50:03;10.80;27.80
47576;DHT22;33304;52.456;13.328;2023-10-09T00:52:37;10.80;28.60
47576;DHT22;33304;52.456;13.328;2023-10-09T00:55:11;10.60;29.00
47576;DHT22;33304;52.456;13.328;2023-10-09T00:57:42;10.70;29.20
47576;DHT22;33304;52.456;13.328;2023-10-09T01:00:16;10.70;30.70
47576;DHT22;33304;52.456;13.328;2023-10-09T01:02:59;10.60;32.10
47576;DHT22;33304;52.456;13.328;2023-10-09T01:05:46;10.60;32.60
47576;DHT22;33304;52.456;13.328;2023-10-09T01:08:19;10.80;33.30
47576;DHT22;33304;52.456;13.328;2023-10-09T01:10:54;10.90;32.40
47576;DHT22;33304;52.456;13.328;2023-10-09T01:13:24;11.00;32.40
47576;DHT22;33304;52.456;13.328;2023-10-09T01:16:06;10.90;32.50
47576;DHT22;33304;52.456;13.328;2023-10-09T01:18:34;10.80;33.90
47576;DHT22;33304;52.456;13.328;2023-10-09T01:21:06;10.90;35.60
47576;DHT22;33304;52.456;13.328;2023-10-09T01:23:34;10.90;36.30
47576;DHT22;33304;52.456;13.328;2023-10-09T01:26:08;10.90;36.50
47576;DHT22;33304;52.456;13.328;2023-10-09T01:28:36;10.90;35.90
47576;DHT22;33304;52.456;13.328;2023-10-09T01:31:04;10.80;36.10
47576;DHT22;33304;52.456;13.328;2023-10-09T01:33:32;10.70;37.90
47576;DHT22;33304;52.456;13.328;2023-10-09T01:36:02;10.70;37.60
47576;DHT22;33304;52.456;13.328;2023-10-09T01:38:31;10.50;39.60
47576;DHT22;33304;52.456;13.328;2023-10-09T01:41:11;10.50;43.60
47576;DHT22;33304;52.456;13.328;2023-10-09T01:43:42;10.60;42.90
47576;DHT22;33304;52.456;13.328;2023-10-09T01:46:11;10.50;43.10
47576;DHT22;33304;52.456;13.328;2023-10-09T01:48:42;10.40;43.50
47576;DHT22;33304;52.456;13.328;2023-10-09T01:51:15;10.50;43.80
47576;DHT22;33304;52.456;13.328;2023-10-09T01:53:43;10.40;45.50
47576;DHT22;33304;52.456;13.328;2023-10-09T01:56:14;10.40;45.40
47576;DHT22;33304;52.456;13.328;2023-10-09T01:58:42;10.30;49.10
47576;DHT22;33304;52.456;13.328;2023-10-09T02:01:13;10.10;54.50
47576;DHT22;33304;52.456;13.328;2023-10-09T02:03:41;10.20;58.80
47576;DHT22;33304;52.456;13.328;2023-10-09T02:06:09;10.40;56.10
47576;DHT22;33304;52.456;13.328;2023-10-09T02:08:53;10.30;54.80
47576;DHT22;33304;52.456;13.328;2023-10-09T02:11:22;10.10;59.40
47576;DHT22;33304;52.456;13.328;2023-10-09T02:14:03;10.10;63.00
47576;DHT22;33304;52.456;13.328;2023-10-09T02:16:42;10.30;65.60
47576;DHT22;33304;52.456;13.328;2023-10-09T02:19:09;10.20;65.50
47576;DHT22;33304;52.456;13.328;2023-10-09T02:21:55;10.30;66.30
47576;DHT22;33304;52.456;13.328;2023-10-09T02:24:24;10.40;63.60
47576;DHT22;33304;52.456;13.328;2023-10-09T02:27:10;10.40;64.30
47576;DHT22;33304;52.456;13.328;2023-10-09T02:29:37;10.40;66.20
47576;DHT22;33304;52.456;13.328;2023-10-09T02:32:07;10.50;66.40
47576;DHT22;33304;52.456;13.328;2023-10-09T02:34:50;10.40;65.10
47576;DHT22;33304;52.456;13.328;2023-10-09T02:37:19;10.30;69.80
47576;DHT22;33304;52.456;13.328;2023-10-09T02:39:51;10.30;71.20
47576;DHT22;33304;52.456;13.328;2023-10-09T02:42:19;10.40;72.20
47576;DHT22;33304;52.456;13.328;2023-10-09T02:44:50;10.40;76.40
47576;DHT22;33304;52.456;13.328;2023-10-09T02:47:17;10.50;85.70
47576;DHT22;33304;52.456;13.328;2023-10-09T02:49:50;10.60;84.40
47576;DHT22;33304;52.456;13.328;2023-10-09T02:52:19;10.60;81.30
47576;DHT22;33304;52.456;13.328;2023-10-09T02:54:51;10.50;83.60
47576;DHT22;33304;52.456;13.328;2023-10-09T02:57:27;10.40;86.70
47576;DHT22;33304;52.456;13.328;2023-10-09T03:00:03;10.30;94.80
47576;DHT22;33304;52.456;13.328;2023-10-09T03:02:34;10.20;99.90
47576;DHT22;33304;52.456;13.328;2023-10-09T03:05:06;10.30;99.90
47576;DHT22;33304;52.456;13.328;2023-10-09T03:07:38;10.30;99.90
47576;DHT22;33304;52.456;13.328;2023-10-09T03:10:07;10.30;99.90
47576;DHT22;33304;52.456;13.328;2023-10-09T03:12:36;10.30;99.90
47576;DHT22;33304;52.456;13.328;2023-10-09T03:15:06;10.40;99.90
47576;DHT22;33304;52.456;13.328;2023-10-09T03:17:34;10.40;99.90
47576;DHT22;33304;52.456;13.328;2023-10-09T03:20:03;10.50;99.90
47576;DHT22;33304;52.456;13.328;2023-10-09T03:22:38;10.50;99.90
47576;DHT22;33304;52.456;13.328;2023-10-09T03:25:06;10.60;99.90
47576;DHT22;33304;52.456;13.328;2023-10-09T03:27:39;10.60;99.90
47576;DHT22;33304;52.456;13.328;2023-10-09T03:30:12;10.60;99.90
47576;DHT22;33304;52.456;13.328;2023-10-09T03:32:44;10.60;99.90
47576;DHT22;33304;52.456;13.328;2023-10-09T03:35:16;10.70;99.90
47576;DHT22;33304;52.456;13.328;2023-10-09T03:37:52;10.70;99.90
47576;DHT22;33304;52.456;13.328;2023-10-09T03:40:23;10.60;99.90
47576;DHT22;33304;52.456;13.328;2023-10-09T03:42:52;10.60;99.90
47576;DHT22;33304;52.456;13.328;2023-10-09T03:45:19;10.60;99.90
47576;DHT22;33304;52.456;13.328;2023-10-09T03:47:53;10.60;99.90
47576;DHT22;33304;52.456;13.328;2023-10-09T03:50:23;10.60;99.90
47576;DHT22;33304;52.456;13.328;2023-10-09T03:53:02;10.60;99.90
47576;DHT22;33304;52.456;13.328;2023-10-09T03:55:34;10.50;99.90
47576;DHT22;33304;52.456;13.328;2023-10-09T03:58:05;10.40;99.90
47576;DHT22;33304;52.456;13.328;2023-10-09T04:00:33;10.40;99.90
47576;DHT22;33304;52.456;13.328;2023-10-09T04:03:10;10.30;99.90
47576;DHT22;33304;52.456;13.328;2023-10-09T04:05:40;10.40;99.90
47576;DHT22;33304;52.456;13.328;2023-10-09T04:08:09;10.40;99.90
47576;DHT22;33304;52.456;13.328;2023-10-09T04:10:39;10.40;99.90
47576;DHT22;33304;52.456;13.328;2023-10-09T04:13:18;10.60;99.90
47576;DHT22;33304;52.456;13.328;2023-10-09T04:15:50;10.50;99.90
47576;DHT22;33304;52.456;13.328;2023-10-09T04:18:19;10.50;99.90
47576;DHT22;33304;52.456;13.328;2023-10-09T04:20:55;10.60;99.90
47576;DHT22;33304;52.456;13.328;2023-10-09T04:23:39;10.60;99.70
47576;DHT22;33304;52.456;13.328;2023-10-09T04:26:24;10.60;97.30
47576;DHT22;33304;52.456;13.328;2023-10-09T04:28:53;10.50;92.60
47576;DHT22;33304;52.456;13.328;2023-10-09T04:31:20;10.50;91.70
47576;DHT22;33304;52.456;13.328;2023-10-09T04:33:53;10.50;92.50
47576;DHT22;33304;52.456;13.328;2023-10-09T04:36:45;10.60;92.30
47576;DHT22;33304;52.456;13.328;2023-10-09T04:39:17;10.50;93.40
47576;DHT22;33304;52.456;13.328;2023-10-09T04:41:58;10.40;94.40
47576;DHT22;33304;52.456;13.328;2023-10-09T04:44:41;10.50;93.10
47576;DHT22;33304;52.456;13.328;2023-10-09T04:47:26;10.40;95.10
47576;DHT22;33304;52.456;13.328;2023-10-09T04:50:02;10.50;94.50
47576;DHT22;33304;52.456;13.328;2023-10-09T04:52:34;10.40;94.20
47576;DHT22;33304;52.456;13.328;2023-10-09T04:55:18;10.40;93.70
47576;DHT22;33304;52.456;13.328;2023-10-09T04:57:51;10.30;93.60
47576;DHT22;33304;52.456;13.328;2023-10-09T05:00:30;10.30;93.90
47576;DHT22;33304;52.456;13.328;2023-10-09T05:03:27;10.30;94.70
47576;DHT22;33304;52.456;13.328;2023-10-09T05:05:56;10.40;95.20
47576;DHT22;33304;52.456;13.328;2023-10-09T05:08:46;10.40;94.80
47576;DHT22;33304;52.456;13.328;2023-10-09T05:11:14;10.40;95.10
47576;DHT22;33304;52.456;13.328;2023-10-09T05:13:58;10.40;95.50
47576;DHT22;33304;52.456;13.328;2023-10-09T05:16:39;10.40;97.60
47576;DHT22;33304;52.456;13.328;2023-10-09T05:19:20;10.30;97.40
47576;DHT22;33304;52.456;13.328;2023-10-09T05:22:09;10.40;97.60
47576;DHT22;33304;52.456;13.328;2023-10-09T05:24:43;10.50;97.50
47576;DHT22;33304;52.456;13.328;2023-10-09T05:27:13;10.40;97.40
47576;DHT22;33304;52.456;13.328;2023-10-09T05:29:50;10.40;97.40
47576;DHT22;33304;52.456;13.328;2023-10-09T05:32:39;10.40;94.80
47576;DHT22;33304;52.456;13.328;2023-10-09T05:35:14;10.40;95.20
47576;DHT22;33304;52.456;13.328;2023-10-09T05:37:42;10.40;94.50
47576;DHT22;33304;52.456;13.328;2023-10-09T05:40:13;10.40;94.40
47576;DHT22;33304;52.456;13.328;2023-10-09T05:42:49;10.40;95.10
47576;DHT22;33304;52.456;13.328;2023-10-09T05:45:25;10.40;93.40
47576;DHT22;33304;52.456;13.328;2023-10-09T05:48:11;10.40;94.60
47576;DHT22;33304;52.456;13.328;2023-10-09T05:51:10;10.40;94.30
47576;DHT22;33304;52.456;13.328;2023-10-09T05:53:45;10.40;93.00
47576;DHT22;33304;52.456;13.328;2023-10-09T05:56:29;10.40;92.40
47576;DHT22;33304;52.456;13.328;2023-10-09T05:59:14;10.40;93.00
47576;DHT22;33304;52.456;13.328;2023-10-09T06:01:59;10.40;93.00
47576;DHT22;33304;52.456;13.328;2023-10-09T06:05:06;10.50;92.90
47576;DHT22;33304;52.456;13.328;2023-10-09T06:07:53;10.50;93.00
47576;DHT22;33304;52.456;13.328;2023-10-09T06:10:34;10.50;93.00
47576;DHT22;33304;52.456;13.328;2023-10-09T06:13:07;10.50;93.10
47576;DHT22;33304;52.456;13.328;2023-10-09T06:15:54;10.50;93.10
47576;DHT22;33304;52.456;13.328;2023-10-09T06:18:46;10.50;91.50
47576;DHT22;33304;52.456;13.328;2023-10-09T06:21:22;10.50;89.80
47576;DHT22;33304;52.456;13.328;2023-10-09T06:24:07;10.50;88.50
47576;DHT22;33304;52.456;13.328;2023-10-09T06:26:43;10.50;88.80
47576;DHT22;33304;52.456;13.328;2023-10-09T06:29:34;10.50;88.90
47576;DHT22;33304;52.456;13.328;2023-10-09T06:32:02;10.50;86.80
47576;DHT22;33304;52.456;13.328;2023-10-09T06:34:50;10.50;86.80
47576;DHT22;33304;52.456;13.328;2023-10-09T06:37:19;10.50;86.80
47576;DHT22;33304;52.456;13.328;2023-10-09T06:40:00;10.50;85.40
47576;DHT22;33304;52.456;13.328;2023-10-09T06:42:45;10.50;85.30
47576;DHT22;33304;52.456;13.328;2023-10-09T06:45:19;10.50;85.70
47576;DHT22;33304;52.456;13.328;2023-10-09T06:47:48;10.60;83.70
47576;DHT22;33304;52.456;13.328;2023-10-09T06:50:22;10.60;85.40
47576;DHT22;33304;52.456;13.328;2023-10-09T06:52:56;10.60;82.80
47576;DHT22;33304;52.456;13.328;2023-10-09T06:55:40;10.60;76.60
47576;DHT22;33304;52.456;13.328;2023-10-09T06:58:15;10.70;76.60
47576;DHT22;33304;52.456;13.328;2023-10-09T07:00:49;10.70;75.10
47576;DHT22;33304;52.456;13.328;2023-10-09T07:03:38;10.70;73.60
47576;DHT22;33304;52.456;13.328;2023-10-09T07:06:18;10.70;74.70
47576;DHT22;33304;52.456;13.328;2023-10-09T07:09:13;10.80;73.90
47576;DHT22;33304;52.456;13.328;2023-10-09T07:11:46;10.90;72.80
47576;DHT22;33304;52.456;13.328;2023-10-09T07:14:35;10.80;74.70
47576;DHT22;33304;52.456;13.328;2023-10-09T07:17:22;10.90;70.80
47576;DHT22;33304;52.456;13.328;2023-10-09T07:19:53;11.00;70.80
47576;DHT22;33304;52.456;13.328;2023-10-09T07:22:37;11.00;64.80
47576;DHT22;33304;52.456;13.328;2023-10-09T07:25:21;10.90;64.40
47576;DHT22;33304;52.456;13.328;2023-10-09T07:28:07;11.00;65.40
47576;DHT22;33304;52.456;13.328;2023-10-09T07:30:56;10.90;65.50
47576;DHT22;33304;52.456;13.328;2023-10-09T07:33:24;10.90;62.00
47576;DHT22;33304;52.456;13.328;2023-10-09T07:36:16;10.80;58.10
47576;DHT22;33304;52.456;13.328;2023-10-09T07:38:56;10.70;60.40
47576;DHT22;33304;52.456;13.328;2023-10-09T07:41:33;10.80;60.10
47576;DHT22;33304;52.456;13.328;2023-10-09T07:44:04;10.90;57.30
47576;DHT22;33304;52.456;13.328;2023-10-09T07:46:45;10.90;57.10
47576;DHT22;33304;52.456;13.328;2023-10-09T07:49:18;10.80;57.40
47576;DHT22;33304;52.456;13.328;2023-10-09T07:51:50;10.90;57.80
47576;DHT22;33304;52.456;13.328;2023-10-09T07:54:18;10.90;56.70
47576;DHT22;33304;52.456;13.328;2023-10-09T07:56:59;11.00;55.30
47576;DHT22;33304;52.456;13.328;2023-10-09T07:59:34;11.20;54.00
47576;DHT22;33304;52.456;13.328;2023-10-09T08:02:07;11.20;50.60
47576;DHT22;33304;52.456;13.328;2023-10-09T08:04:39;11.30;47.40
47576;DHT22;33304;52.456;13.328;2023-10-09T08:07:15;11.40;45.40
47576;DHT22;33304;52.456;13.328;2023-10-09T08:09:51;11.40;46.60
47576;DHT22;33304;52.456;13.328;2023-10-09T08:12:34;11.50;44.50
47576;DHT22;33304;52.456;13.328;2023-10-09T08:15:24;11.30;44.40
47576;DHT22;33304;52.456;13.328;2023-10-09T08:18:00;11.40;44.50
47576;DHT22;33304;52.456;13.328;2023-10-09T08:20:30;11.40;41.00
47576;DHT22;33304;52.456;13.328;2023-10-09T08:23:17;11.50;41.50
47576;DHT22;33304;52.456;13.328;2023-10-09T08:25:59;11.50;41.70
47576;DHT22;33304;52.456;13.328;2023-10-09T08:28:39;11.60;41.50
47576;DHT22;33304;52.456;13.328;2023-10-09T08:31:09;11.60;41.20
47576;DHT22;33304;52.456;13.328;2023-10-09T08:34:11;11.50;41.80
47576;DHT22;33304;52.456;13.328;2023-10-09T08:36:53;11.50;43.20
47576;DHT22;33304;52.456;13.328;2023-10-09T08:39:20;11.50;42.30
47576;DHT22;33304;52.456;13.328;2023-10-09T08:41:59;11.60;41.50
47576;DHT22;33304;52.456;13.328;2023-10-09T08:44:28;11.50;39.20
47576;DHT22;33304;52.456;13.328;2023-10-09T08:46:59;11.50;39.60
47576;DHT22;33304;52.456;13.328;2023-10-09T08:49:26;11.30;40.60
47576;DHT22;33304;52.456;13.328;2023-10-09T08:51:54;11.30;42.40
47576;DHT22;33304;52.456;13.328;2023-10-09T08:54:21;11.20;44.30
47576;DHT22;33304;52.456;13.328;2023-10-09T08:56:49;11.50;42.10
47576;DHT22;33304;52.456;13.328;2023-10-09T08:59:20;11.50;41.70
47576;DHT22;33304;52.456;13.328;2023-10-09T09:01:49;11.50;40.60
47576;DHT22;33304;52.456;13.328;2023-10-09T09:04:37;11.50;42.10
47576;DHT22;33304;52.456;13.328;2023-10-09T09:07:05;11.40;42.50
47576;DHT22;33304;52.456;13.328;2023-10-09T09:09:33;11.60;41.90
47576;DHT22;33304;52.456;13.328;2023-10-09T09:12:00;11.60;41.30
47576;DHT22;33304;52.456;13.328;2023-10-09T09:14:37;11.60;42.90
47576;DHT22;33304;52.456;13.328;2023-10-09T09:17:06;11.60;42.90
47576;DHT22;33304;52.456;13.328;2023-10-09T09:19:37;11.60;41.10
47576;DHT22;33304;52.456;13.328;2023-10-09T09:22:05;11.50;40.70
47576;DHT22;33304;52.456;13.328;2023-10-09T09:24:39;11.50;39.10
47576;DHT22;33304;52.456;13.328;2023-10-09T09:27:11;11.50;39.90
47576;DHT22;33304;52.456;13.328;2023-10-09T09:29:45;11.60;40.00
47576;DHT22;33304;52.456;13.328;2023-10-09T09:32:28;11.60;41.00
47576;DHT22;33304;52.456;13.328;2023-10-09T09:35:02;11.60;40.30
47576;DHT22;33304;52.456;13.328;2023-10-09T09:37:31;11.60;42.60
47576;DHT22;33304;52.456;13.328;2023-10-09T09:40:16;11.60;41.10
47576;DHT22;33304;52.456;13.328;2023-10-09T09:42:57;11.60;42.90
47576;DHT22;33304;52.456;13.328;2023-10-09T09:45:32;11.60;43.60
47576;DHT22;33304;52.456;13.328;2023-10-09T09:48:02;11.40;44.40
47576;DHT22;33304;52.456;13.328;2023-10-09T09:50:32;11.40;44.40
47576;DHT22;33304;52.456;13.328;2023-10-09T09:52:59;11.30;42.10
47576;DHT22;33304;52.456;13.328;2023-10-09T09:55:33;11.30;44.40
47576;DHT22;33304;52.456;13.328;2023-10-09T09:58:02;11.50;44.50
47576;DHT22;33304;52.456;13.328;2023-10-09T10:00:33;11.70;41.20
47576;DHT22;33304;52.456;13.328;2023-10-09T10:03:13;11.70;39.30
47576;DHT22;33304;52.456;13.328;2023-10-09T10:05:42;11.70;38.60
47576;DHT22;33304;52.456;13.328;2023-10-09T10:08:15;11.80;37.50
47576;DHT22;33304;52.456;13.328;2023-10-09T10:10:46;11.70;35.60
47576;DHT22;33304;52.456;13.328;2023-10-09T10:13:55;11.70;34.60
47576;DHT22;33304;52.456;13.328;2023-10-09T10:16:25;11.60;36.50
47576;DHT22;33304;52.456;13.328;2023-10-09T10:19:02;11.60;36.60
47576;DHT22;33304;52.456;13.328;2023-10-09T10:21:48;11.70;36.60
47576;DHT22;33304;52.456;13.328;2023-10-09T10:24:40;11.50;38.10
47576;DHT22;33304;52.456;13.328;2023-10-09T10:27:21;11.60;37.70
47576;DHT22;33304;52.456;13.328;2023-10-09T10:32:58;11.70;39.00
47576;DHT22;33304;52.456;13.328;2023-10-09T10:35:36;11.80;37.80
47576;DHT22;33304;52.456;13.328;2023-10-09T10:38:24;11.70;40.20
47576;DHT22;33304;52.456;13.328;2023-10-09T10:41:09;11.80;39.10
47576;DHT22;33304;52.456;13.328;2023-10-09T10:43:40;11.90;37.50
47576;DHT22;33304;52.456;13.328;2023-10-09T10:46:22;11.90;38.10
47576;DHT22;33304;52.456;13.328;2023-10-09T10:49:04;11.90;37.80
47576;DHT22;33304;52.456;13.328;2023-10-09T10:51:42;11.90;33.50
47576;DHT22;33304;52.456;13.328;2023-10-09T10:54:21;11.90;33.90
47576;DHT22;33304;52.456;13.328;2023-10-09T10:57:17;12.00;35.90
47576;DHT22;33304;52.456;13.328;2023-10-09T10:59:55;12.10;34.80
47576;DHT22;33304;52.456;13.328;2023-10-09T11:02:39;12.10;35.40
47576;DHT22;33304;52.456;13.328;2023-10-09T11:05:07;12.10;35.10
47576;DHT22;33304;52.456;13.328;2023-10-09T11:07:57;12.10;33.40
47576;DHT22;33304;52.456;13.328;2023-10-09T11:10:26;11.90;33.80
47576;DHT22;33304;52.456;13.328;2023-10-09T11:12:57;12.00;33.40
47576;DHT22;33304;52.456;13.328;2023-10-09T11:15:42;12.10;33.40
47576;DHT22;33304;52.456;13.328;2023-10-09T11:18:22;12.10;33.50
47576;DHT22;33304;52.456;13.328;2023-10-09T11:20:54;12.10;33.50
47576;DHT22;33304;52.456;13.328;2023-10-09T11:23:45;12.30;32.80
47576;DHT22;33304;52.456;13.328;2023-10-09T11:26:25;12.10;30.90
47576;DHT22;33304;52.456;13.328;2023-10-09T11:29:09;12.00;30.80
47576;DHT22;33304;52.456;13.328;2023-10-09T11:31:59;12.00;31.20
47576;DHT22;33304;52.456;13.328;2023-10-09T11:34:26;12.00;32.00
47576;DHT22;33304;52.456;13.328;2023-10-09T11:36:58;11.90;33.30
47576;DHT22;33304;52.456;13.328;2023-10-09T11:39:28;12.00;32.90
47576;DHT22;33304;52.456;13.328;2023-10-09T11:42:02;12.20;33.00
47576;DHT22;33304;52.456;13.328;2023-10-09T11:44:38;12.20;31.50
47576;DHT22;33304;52.456;13.328;2023-10-09T11:47:07;12.20;29.80
47576;DHT22;33304;52.456;13.328;2023-10-09T11:49:52;12.10;31.60
47576;DHT22;33304;52.456;13.328;2023-10-09T11:52:55;12.40;30.70
47576;DHT22;33304;52.456;13.328;2023-10-09T11:55:40;12.30;29.60
47576;DHT22;33304;52.456;13.328;2023-10-09T11:58:08;12.40;29.60
47576;DHT22;33304;52.456;13.328;2023-10-09T12:00:35;12.50;29.70
47576;DHT22;33304;52.456;13.328;2023-10-09T12:03:11;12.50;28.50
47576;DHT22;33304;52.456;13.328;2023-10-09T12:05:40;12.50;29.30
47576;DHT22;33304;52.456;13.328;2023-10-09T12:08:12;12.40;28.80
47576;DHT22;33304;52.456;13.328;2023-10-09T12:10:43;12.30;29.00
47576;DHT22;33304;52.456;13.328;2023-10-09T12:13:10;12.30;29.60
47576;DHT22;33304;52.456;13.328;2023-10-09T12:15:37;12.20;30.30
47576;DHT22;33304;52.456;13.328;2023-10-09T12:18:06;12.30;29.30
47576;DHT22;33304;52.456;13.328;2023-10-09T12:20:41;12.30;29.40
47576;DHT22;33304;52.456;13.328;2023-10-09T12:23:11;12.10;29.80
47576;DHT22;33304;52.456;13.328;2023-10-09T12:25:40;12.10;30.30
47576;DHT22;33304;52.456;13.328;2023-10-09T12:28:12;12.10;30.90
47576;DHT22;33304;52.456;13.328;2023-10-09T12:30:40;12.20;30.30
47576;DHT22;33304;52.456;13.328;2023-10-09T12:33:08;12.10;30.80
47576;DHT22;33304;52.456;13.328;2023-10-09T12:35:37;12.10;32.40
47576;DHT22;33304;52.456;13.328;2023-10-09T12:38:04;11.90;32.50
47576;DHT22;33304;52.456;13.328;2023-10-09T12:40:34;11.70;33.10
47576;DHT22;33304;52.456;13.328;2023-10-09T12:43:02;11.50;35.10
47576;DHT22;33304;52.456;13.328;2023-10-09T12:45:33;11.70;37.60
47576;DHT22;33304;52.456;13.328;2023-10-09T12:48:01;11.80;36.20
47576;DHT22;33304;52.456;13.328;2023-10-09T12:50:34;11.80;35.80
47576;DHT22;33304;52.456;13.328;2023-10-09T12:53:08;11.90;33.60
47576;DHT22;33304;52.456;13.328;2023-10-09T12:55:36;11.80;35.00
47576;DHT22;33304;52.456;13.328;2023-10-09T12:58:07;11.90;35.70
47576;DHT22;33304;52.456;13.328;2023-10-09T13:00:36;11.90;36.20
47576;DHT22;33304;52.456;13.328;2023-10-09T13:03:06;11.90;36.40
47576;DHT22;33304;52.456;13.328;2023-10-09T13:05:44;11.70;37.40
47576;DHT22;33304;52.456;13.328;2023-10-09T13:08:19;11.90;36.50
47576;DHT22;33304;52.456;13.328;2023-10-09T13:10:48;12.10;33.50
47576;DHT22;33304;52.456;13.328;2023-10-09T13:13:27;11.90;33.30
47576;DHT22;33304;52.456;13.328;2023-10-09T13:16:08;11.90;35.90
47576;DHT22;33304;52.456;13.328;2023-10-09T13:18:38;12.00;33.30
47576;DHT22;33304;52.456;13.328;2023-10-09T13:21:06;11.80;34.40
47576;DHT22;33304;52.456;13.328;2023-10-09T13:23:33;11.90;33.80
47576;DHT22;33304;52.456;13.328;2023-10-09T13:26:06;12.00;33.40
47576;DHT22;33304;52.456;13.328;2023-10-09T13:28:45;11.90;33.30
47576;DHT22;33304;52.456;13.328;2023-10-09T13:31:14;12.00;33.40
47576;DHT22;33304;52.456;13.328;2023-10-09T13:33:42;11.90;33.30
47576;DHT22;33304;52.456;13.328;2023-10-09T13:36:09;11.80;34.70
47576;DHT22;33304;52.456;13.328;2023-10-09T13:38:43;11.80;35.70
47576;DHT22;33304;52.456;13.328;2023-10-09T13:41:10;12.10;31.70
47576;DHT22;33304;52.456;13.328;2023-10-09T13:43:40;12.20;30.00
47576;DHT22;33304;52.456;13.328;2023-10-09T13:46:09;12.30;30.70
47576;DHT22;33304;52.456;13.328;2023-10-09T13:48:40;12.30;30.60
47576;DHT22;33304;52.456;13.328;2023-10-09T13:51:09;12.40;28.50
47576;DHT22;33304;52.456;13.328;2023-10-09T13:53:41;12.50;29.20
47576;DHT22;33304;52.456;13.328;2023-10-09T13:56:15;12.30;30.60
47576;DHT22;33304;52.456;13.328;2023-10-09T13:58:48;12.20;31.10
47576;DHT22;33304;52.456;13.328;2023-10-09T14:01:16;11.90;32.70
47576;DHT22;33304;52.456;13.328;2023-10-09T14:03:58;11.70;34.20
47576;DHT22;33304;52.456;13.328;2023-10-09T14:06:26;11.60;37.20
47576;DHT22;33304;52.456;13.328;2023-10-09T14:09:00;11.50;39.40
47576;DHT22;33304;52.456;13.328;2023-10-09T14:11:31;11.60;43.10
47576;DHT22;33304;52.456;13.328;2023-10-09T14:13:58;11.60;41.50
47576;DHT22;33304;52.456;13.328;2023-10-09T14:16:27;11.70;41.10
47576;DHT22;33304;52.456;13.328;2023-10-09T14:18:56;11.40;44.50
47576;DHT22;33304;52.456;13.328;2023-10-09T14:21:26;11.30;48.30
47576;DHT22;33304;52.456;13.328;2023-10-09T14:23:56;11.30;52.20
47576;DHT22;33304;52.456;13.328;2023-10-09T14:26:25;11.50;50.50
47576;DHT22;33304;52.456;13.328;2023-10-09T14:28:52;11.60;49.20
47576;DHT22;33304;52.456;13.328;2023-10-09T14:31:19;11.70;46.00
47576;DHT22;33304;52.456;13.328;2023-10-09T14:33:52;11.70;46.20
47576;DHT22;33304;52.456;13.328;2023-10-09T14:36:21;11.80;45.30
47576;DHT22;33304;52.456;13.328;2023-10-09T14:38:49;11.70;43.20
47576;DHT22;33304;52.456;13.328;2023-10-09T14:41:19;11.70;44.70
47576;DHT22;33304;52.456;13.328;2023-10-09T14:43:50;11.80;44.30
47576;DHT22;33304;52.456;13.328;2023-10-09T14:46:18;11.80;44.80
47576;DHT22;33304;52.456;13.328;2023-10-09T14:48:51;11.80;44.30
47576;DHT22;33304;52.456;13.328;2023-10-09T14:51:21;12.00;42.30
47576;DHT22;33304;52.456;13.328;2023-10-09T14:53:54;12.00;40.60
47576;DHT22;33304;52.456;13.328;2023-10-09T14:56:26;11.80;40.90
47576;DHT22;33304;52.456;13.328;2023-10-09T14:58:56;11.80;41.70
47576;DHT22;33304;52.456;13.328;2023-10-09T15:01:25;11.50;44.00
47576;DHT22;33304;52.456;13.328;2023-10-09T15:03:58;11.50;44.60
47576;DHT22;33304;52.456;13.328;2023-10-09T15:06:27;11.60;44.60
47576;DHT22;33304;52.456;13.328;2023-10-09T15:08:56;11.70;44.70
47576;DHT22;33304;52.456;13.328;2023-10-09T15:11:25;11.70;44.10
47576;DHT22;33304;52.456;13.328;2023-10-09T15:13:55;11.70;43.90
47576;DHT22;33304;52.456;13.328;2023-10-09T15:16:24;11.80;42.20
47576;DHT22;33304;52.456;13.328;2023-10-09T15:18:54;11.70;42.80
47576;DHT22;33304;52.456;13.328;2023-10-09T15:21:31;11.50;44.60
47576;DHT22;33304;52.456;13.328;2023-10-09T15:23:59;11.40;46.10
47576;DHT22;33304;52.456;13.328;2023-10-09T15:26:27;11.40;48.30
47576;DHT22;33304;52.456;13.328;2023-10-09T15:29:01;11.40;47.70
47576;DHT22;33304;52.456;13.328;2023-10-09T15:31:30;11.50;47.10
47576;DHT22;33304;52.456;13.328;2023-10-09T15:33:59;11.50;47.90
47576;DHT22;33304;52.456;13.328;2023-10-09T15:36:26;11.60;48.80
47576;DHT22;33304;52.456;13.328;2023-10-09T15:38:56;11.60;46.20
47576;DHT22;33304;52.456;13.328;2023-10-09T15:41:29;11.70;44.80
47576;DHT22;33304;52.456;13.328;2023-10-09T15:43:58;11.40;47.10
47576;DHT22;33304;52.456;13.328;2023-10-09T15:46:27;11.50;47.10
47576;DHT22;33304;52.456;13.328;2023-10-09T15:48:59;11.50;47.40
47576;DHT22;33304;52.456;13.328;2023-10-09T15:51:27;11.50;47.50
47576;DHT22;33304;52.456;13.328;2023-10-09T15:53:55;11.70;45.50
47576;DHT22;33304;52.456;13.328;2023-10-09T15:56:22;11.60;44.60
47576;DHT22;33304;52.456;13.328;2023-10-09T15:58:50;11.50;45.80
47576;DHT22;33304;52.456;13.328;2023-10-09T16:01:19;11.40;47.90
47576;DHT22;33304;52.456;13.328;2023-10-09T16:03:48;11.50;47.90